sensor_id;sensor_type;location;lat;lon;timestamp;P1;durP1;ratioP1;P2;durP2;ratioP2
16612;SDS011;8419;52.358;9.752;2023-02-14T00:00:27;18.20;;;11.43;;
16612;SDS011;8419;52.358;9.752;2023-02-14T00:03:12;23.93;;;11.63;;
16612;SDS011;8419;52.358;9.752;2023-02-14T00:05:58;23.50;;;11.83;;
16612;SDS011;8419;52.358;9.752;2023-02-14T00:08:49;19.23;;;11.60;;
16612;SDS011;8419;52.358;9.752;2023-02-14T00:11:37;18.47;;;10.90;;
16612;SDS011;8419;52.358;9.752;2023-02-14T00:14:23;22.00;;;12.50;;
16612;SDS011;8419;52.358;9.752;2023-02-14T00:17:40;23.07;;;11.90;;
16612;SDS011;8419;52.358;9.752;2023-02-14T00:20:26;22.97;;;12.03;;
16612;SDS011;8419;52.358;9.752;2023-02-14T00:23:12;20.27;;;11.43;;
16612;SDS011;8419;52.358;9.752;2023-02-14T00:25:57;21.47;;;11.77;;
16612;SDS011;8419;52.358;9.752;2023-02-14T00:28:43;26.13;;;12.80;;
16612;SDS011;8419;52.358;9.752;2023-02-14T00:31:28;26.60;;;12.47;;
16612;SDS011;8419;52.358;9.752;2023-02-14T00:34:14;19.73;;;11.60;;
16612;SDS011;8419;52.358;9.752;2023-02-14T00:37:01;24.23;;;12.03;;
16612;SDS011;8419;52.358;9.752;2023-02-14T00:39:46;24.97;;;13.20;;
16612;SDS011;8419;52.358;9.752;2023-02-14T00:42:33;21.87;;;12.13;;
16612;SDS011;8419;52.358;9.752;2023-02-14T00:45:18;23.97;;;11.93;;
16612;SDS011;8419;52.358;9.752;2023-02-14T00:48:04;22.20;;;12.20;;
16612;SDS011;8419;52.358;9.752;2023-02-14T00:50:49;23.57;;;12.43;;
16612;SDS011;8419;52.358;9.752;2023-02-14T00:53:36;23.60;;;11.87;;
16612;SDS011;8419;52.358;9.752;2023-02-14T00:56:22;25.00;;;12.67;;
16612;SDS011;8419;52.358;9.752;2023-02-14T00:59:07;23.30;;;11.97;;
16612;SDS011;8419;52.358;9.752;2023-02-14T01:01:53;25.53;;;12.10;;
16612;SDS011;8419;52.358;9.752;2023-02-14T01:04:38;26.70;;;13.27;;
16612;SDS011;8419;52.358;9.752;2023-02-14T01:07:23;25.83;;;12.87;;
16612;SDS011;8419;52.358;9.752;2023-02-14T01:10:10;22.20;;;12.10;;
16612;SDS011;8419;52.358;9.752;2023-02-14T01:12:55;22.67;;;12.40;;
16612;SDS011;8419;52.358;9.752;2023-02-14T01:15:41;23.33;;;12.37;;
16612;SDS011;8419;52.358;9.752;2023-02-14T01:18:29;23.40;;;13.03;;
16612;SDS011;8419;52.358;9.752;2023-02-14T01:21:16;23.63;;;12.40;;
16612;SDS011;8419;52.358;9.752;2023-02-14T01:24:03;25.10;;;12.93;;
16612;SDS011;8419;52.358;9.752;2023-02-14T01:26:51;25.63;;;12.10;;
16612;SDS011;8419;52.358;9.752;2023-02-14T01:29:36;25.13;;;12.53;;
16612;SDS011;8419;52.358;9.752;2023-02-14T01:32:22;23.10;;;12.23;;
16612;SDS011;8419;52.358;9.752;2023-02-14T01:35:08;28.67;;;12.37;;
16612;SDS011;8419;52.358;9.752;2023-02-14T01:37:53;30.50;;;14.07;;
16612;SDS011;8419;52.358;9.752;2023-02-14T01:40:41;24.10;;;12.43;;
16612;SDS011;8419;52.358;9.752;2023-02-14T01:43:26;25.20;;;13.63;;
16612;SDS011;8419;52.358;9.752;2023-02-14T01:46:12;23.97;;;12.77;;
16612;SDS011;8419;52.358;9.752;2023-02-14T01:48:59;25.40;;;12.77;;
16612;SDS011;8419;52.358;9.752;2023-02-14T01:51:47;26.50;;;12.67;;
16612;SDS011;8419;52.358;9.752;2023-02-14T01:54:35;27.97;;;12.67;;
16612;SDS011;8419;52.358;9.752;2023-02-14T01:57:25;26.13;;;13.40;;
16612;SDS011;8419;52.358;9.752;2023-02-14T02:03:23;25.10;;;12.67;;
16612;SDS011;8419;52.358;9.752;2023-02-14T02:06:14;23.37;;;12.50;;
16612;SDS011;8419;52.358;9.752;2023-02-14T02:09:04;24.80;;;12.20;;
16612;SDS011;8419;52.358;9.752;2023-02-14T02:11:56;24.83;;;12.27;;
16612;SDS011;8419;52.358;9.752;2023-02-14T02:14:42;26.40;;;12.77;;
16612;SDS011;8419;52.358;9.752;2023-02-14T02:17:28;24.37;;;12.47;;
16612;SDS011;8419;52.358;9.752;2023-02-14T02:20:27;26.20;;;13.73;;
16612;SDS011;8419;52.358;9.752;2023-02-14T02:27:18;27.70;;;12.43;;
16612;SDS011;8419;52.358;9.752;2023-02-14T02:30:17;23.70;;;12.27;;
16612;SDS011;8419;52.358;9.752;2023-02-14T02:40:01;24.33;;;11.93;;
16612;SDS011;8419;52.358;9.752;2023-02-14T02:42:57;25.73;;;12.60;;
16612;SDS011;8419;52.358;9.752;2023-02-14T02:45:52;25.33;;;12.73;;
16612;SDS011;8419;52.358;9.752;2023-02-14T02:49:04;24.17;;;12.40;;
16612;SDS011;8419;52.358;9.752;2023-02-14T02:51:57;21.93;;;11.17;;
16612;SDS011;8419;52.358;9.752;2023-02-14T02:55:06;20.47;;;11.80;;
16612;SDS011;8419;52.358;9.752;2023-02-14T02:57:58;23.23;;;11.43;;
16612;SDS011;8419;52.358;9.752;2023-02-14T03:00:44;22.73;;;11.73;;
16612;SDS011;8419;52.358;9.752;2023-02-14T03:03:32;20.67;;;10.80;;
16612;SDS011;8419;52.358;9.752;2023-02-14T03:06:39;21.40;;;10.60;;
16612;SDS011;8419;52.358;9.752;2023-02-14T03:12:45;25.37;;;12.60;;
16612;SDS011;8419;52.358;9.752;2023-02-14T03:15:55;21.03;;;10.67;;
16612;SDS011;8419;52.358;9.752;2023-02-14T03:18:59;28.07;;;11.67;;
16612;SDS011;8419;52.358;9.752;2023-02-14T03:22:12;25.00;;;11.17;;
16612;SDS011;8419;52.358;9.752;2023-02-14T03:25:07;22.83;;;11.93;;
16612;SDS011;8419;52.358;9.752;2023-02-14T03:28:03;25.00;;;12.63;;
16612;SDS011;8419;52.358;9.752;2023-02-14T03:30:56;27.27;;;12.13;;
16612;SDS011;8419;52.358;9.752;2023-02-14T03:33:46;25.63;;;12.23;;
16612;SDS011;8419;52.358;9.752;2023-02-14T03:36:43;20.03;;;9.93;;
16612;SDS011;8419;52.358;9.752;2023-02-14T03:39:36;20.80;;;10.97;;
16612;SDS011;8419;52.358;9.752;2023-02-14T03:42:27;19.57;;;9.33;;
16612;SDS011;8419;52.358;9.752;2023-02-14T03:45:18;18.07;;;9.67;;
16612;SDS011;8419;52.358;9.752;2023-02-14T03:48:10;17.30;;;8.10;;
16612;SDS011;8419;52.358;9.752;2023-02-14T03:51:01;16.63;;;7.50;;
16612;SDS011;8419;52.358;9.752;2023-02-14T03:53:49;16.67;;;8.07;;
16612;SDS011;8419;52.358;9.752;2023-02-14T03:56:39;12.83;;;7.27;;
16612;SDS011;8419;52.358;9.752;2023-02-14T03:59:29;13.40;;;6.77;;
16612;SDS011;8419;52.358;9.752;2023-02-14T04:02:16;14.70;;;6.93;;
16612;SDS011;8419;52.358;9.752;2023-02-14T04:05:08;13.53;;;7.33;;
16612;SDS011;8419;52.358;9.752;2023-02-14T04:07:59;13.60;;;7.30;;
16612;SDS011;8419;52.358;9.752;2023-02-14T04:10:44;11.30;;;6.37;;
16612;SDS011;8419;52.358;9.752;2023-02-14T04:13:30;11.03;;;6.57;;
16612;SDS011;8419;52.358;9.752;2023-02-14T04:16:17;11.73;;;6.60;;
16612;SDS011;8419;52.358;9.752;2023-02-14T04:19:03;11.53;;;7.03;;
16612;SDS011;8419;52.358;9.752;2023-02-14T04:22:07;11.37;;;6.87;;
16612;SDS011;8419;52.358;9.752;2023-02-14T04:24:52;12.60;;;6.13;;
16612;SDS011;8419;52.358;9.752;2023-02-14T04:27:38;16.10;;;6.90;;
16612;SDS011;8419;52.358;9.752;2023-02-14T04:30:24;12.27;;;6.80;;
16612;SDS011;8419;52.358;9.752;2023-02-14T04:33:09;16.30;;;6.57;;
16612;SDS011;8419;52.358;9.752;2023-02-14T04:35:55;11.90;;;7.20;;
16612;SDS011;8419;52.358;9.752;2023-02-14T04:38:40;10.57;;;5.73;;
16612;SDS011;8419;52.358;9.752;2023-02-14T04:41:25;11.60;;;6.53;;
16612;SDS011;8419;52.358;9.752;2023-02-14T04:44:11;15.13;;;7.30;;
16612;SDS011;8419;52.358;9.752;2023-02-14T04:46:56;10.23;;;6.13;;
16612;SDS011;8419;52.358;9.752;2023-02-14T04:49:42;13.87;;;7.07;;
16612;SDS011;8419;52.358;9.752;2023-02-14T04:52:28;12.03;;;6.30;;
16612;SDS011;8419;52.358;9.752;2023-02-14T04:55:13;11.13;;;6.90;;
16612;SDS011;8419;52.358;9.752;2023-02-14T04:57:59;10.73;;;6.80;;
16612;SDS011;8419;52.358;9.752;2023-02-14T05:00:44;16.13;;;7.10;;
16612;SDS011;8419;52.358;9.752;2023-02-14T05:03:30;11.17;;;7.27;;
16612;SDS011;8419;52.358;9.752;2023-02-14T05:06:15;12.47;;;7.20;;
16612;SDS011;8419;52.358;9.752;2023-02-14T05:09:01;10.67;;;6.70;;
16612;SDS011;8419;52.358;9.752;2023-02-14T05:11:47;13.67;;;8.00;;
16612;SDS011;8419;52.358;9.752;2023-02-14T05:14:33;10.33;;;6.37;;
16612;SDS011;8419;52.358;9.752;2023-02-14T05:17:18;12.20;;;7.27;;
16612;SDS011;8419;52.358;9.752;2023-02-14T05:20:05;11.17;;;7.23;;
16612;SDS011;8419;52.358;9.752;2023-02-14T05:22:53;10.23;;;6.27;;
16612;SDS011;8419;52.358;9.752;2023-02-14T05:25:40;9.50;;;6.23;;
16612;SDS011;8419;52.358;9.752;2023-02-14T05:28:25;12.30;;;7.30;;
16612;SDS011;8419;52.358;9.752;2023-02-14T05:31:11;12.77;;;7.53;;
16612;SDS011;8419;52.358;9.752;2023-02-14T05:33:57;14.33;;;5.93;;
16612;SDS011;8419;52.358;9.752;2023-02-14T05:36:42;9.90;;;6.00;;
16612;SDS011;8419;52.358;9.752;2023-02-14T05:39:28;9.60;;;5.63;;
16612;SDS011;8419;52.358;9.752;2023-02-14T05:42:13;12.00;;;7.13;;
16612;SDS011;8419;52.358;9.752;2023-02-14T05:44:59;12.17;;;7.00;;
16612;SDS011;8419;52.358;9.752;2023-02-14T05:47:45;13.10;;;7.00;;
16612;SDS011;8419;52.358;9.752;2023-02-14T05:50:31;13.63;;;6.80;;
16612;SDS011;8419;52.358;9.752;2023-02-14T05:53:17;11.27;;;6.03;;
16612;SDS011;8419;52.358;9.752;2023-02-14T05:56:03;9.47;;;6.30;;
16612;SDS011;8419;52.358;9.752;2023-02-14T05:58:50;11.40;;;6.17;;
16612;SDS011;8419;52.358;9.752;2023-02-14T06:01:35;10.83;;;6.43;;
16612;SDS011;8419;52.358;9.752;2023-02-14T06:04:21;9.33;;;6.73;;
16612;SDS011;8419;52.358;9.752;2023-02-14T06:07:06;9.37;;;5.63;;
16612;SDS011;8419;52.358;9.752;2023-02-14T06:09:52;10.13;;;5.77;;
16612;SDS011;8419;52.358;9.752;2023-02-14T06:12:38;10.73;;;6.43;;
16612;SDS011;8419;52.358;9.752;2023-02-14T06:15:23;11.57;;;6.93;;
16612;SDS011;8419;52.358;9.752;2023-02-14T06:18:09;13.33;;;6.87;;
16612;SDS011;8419;52.358;9.752;2023-02-14T06:20:54;8.87;;;5.90;;
16612;SDS011;8419;52.358;9.752;2023-02-14T06:23:40;9.83;;;6.20;;
16612;SDS011;8419;52.358;9.752;2023-02-14T06:26:26;12.53;;;6.37;;
16612;SDS011;8419;52.358;9.752;2023-02-14T06:29:11;12.00;;;6.23;;
16612;SDS011;8419;52.358;9.752;2023-02-14T06:31:59;12.10;;;6.47;;
16612;SDS011;8419;52.358;9.752;2023-02-14T06:34:49;8.70;;;5.60;;
16612;SDS011;8419;52.358;9.752;2023-02-14T06:37:34;10.83;;;6.00;;
16612;SDS011;8419;52.358;9.752;2023-02-14T06:40:22;10.83;;;5.90;;
16612;SDS011;8419;52.358;9.752;2023-02-14T06:43:07;9.07;;;5.80;;
16612;SDS011;8419;52.358;9.752;2023-02-14T06:45:53;12.37;;;6.97;;
16612;SDS011;8419;52.358;9.752;2023-02-14T06:48:38;9.83;;;6.47;;
16612;SDS011;8419;52.358;9.752;2023-02-14T06:51:24;10.47;;;6.47;;
16612;SDS011;8419;52.358;9.752;2023-02-14T06:54:10;10.73;;;5.93;;
16612;SDS011;8419;52.358;9.752;2023-02-14T06:56:55;9.63;;;6.20;;
16612;SDS011;8419;52.358;9.752;2023-02-14T06:59:41;11.50;;;7.07;;
16612;SDS011;8419;52.358;9.752;2023-02-14T07:02:26;11.77;;;6.37;;
16612;SDS011;8419;52.358;9.752;2023-02-14T07:05:12;9.67;;;5.93;;
16612;SDS011;8419;52.358;9.752;2023-02-14T07:07:59;11.53;;;6.70;;
16612;SDS011;8419;52.358;9.752;2023-02-14T07:10:45;14.27;;;8.53;;
16612;SDS011;8419;52.358;9.752;2023-02-14T07:13:31;11.83;;;6.57;;
16612;SDS011;8419;52.358;9.752;2023-02-14T07:16:16;9.20;;;6.20;;
16612;SDS011;8419;52.358;9.752;2023-02-14T07:19:02;13.20;;;7.40;;
16612;SDS011;8419;52.358;9.752;2023-02-14T07:21:47;10.97;;;6.63;;
16612;SDS011;8419;52.358;9.752;2023-02-14T07:24:33;12.53;;;7.23;;
16612;SDS011;8419;52.358;9.752;2023-02-14T07:27:19;10.90;;;7.00;;
16612;SDS011;8419;52.358;9.752;2023-02-14T07:30:06;11.20;;;7.17;;
16612;SDS011;8419;52.358;9.752;2023-02-14T07:32:53;11.20;;;6.93;;
16612;SDS011;8419;52.358;9.752;2023-02-14T07:35:40;11.27;;;7.20;;
16612;SDS011;8419;52.358;9.752;2023-02-14T07:38:26;13.67;;;7.63;;
16612;SDS011;8419;52.358;9.752;2023-02-14T07:41:15;12.00;;;7.17;;
16612;SDS011;8419;52.358;9.752;2023-02-14T07:44:01;13.87;;;7.83;;
16612;SDS011;8419;52.358;9.752;2023-02-14T07:46:47;13.30;;;7.80;;
16612;SDS011;8419;52.358;9.752;2023-02-14T07:49:33;12.70;;;7.20;;
16612;SDS011;8419;52.358;9.752;2023-02-14T07:52:19;11.20;;;7.27;;
16612;SDS011;8419;52.358;9.752;2023-02-14T07:55:05;13.20;;;7.57;;
16612;SDS011;8419;52.358;9.752;2023-02-14T07:57:51;12.87;;;7.70;;
16612;SDS011;8419;52.358;9.752;2023-02-14T08:00:37;12.83;;;7.57;;
16612;SDS011;8419;52.358;9.752;2023-02-14T08:03:23;13.73;;;7.03;;
16612;SDS011;8419;52.358;9.752;2023-02-14T08:06:08;12.80;;;7.80;;
16612;SDS011;8419;52.358;9.752;2023-02-14T08:08:56;13.57;;;7.93;;
16612;SDS011;8419;52.358;9.752;2023-02-14T08:11:42;11.97;;;7.27;;
16612;SDS011;8419;52.358;9.752;2023-02-14T08:14:50;10.73;;;7.10;;
16612;SDS011;8419;52.358;9.752;2023-02-14T08:17:36;12.63;;;7.13;;
16612;SDS011;8419;52.358;9.752;2023-02-14T08:20:22;11.83;;;7.37;;
16612;SDS011;8419;52.358;9.752;2023-02-14T08:23:07;11.67;;;6.73;;
16612;SDS011;8419;52.358;9.752;2023-02-14T08:25:53;12.60;;;8.17;;
16612;SDS011;8419;52.358;9.752;2023-02-14T08:28:39;12.13;;;7.17;;
16612;SDS011;8419;52.358;9.752;2023-02-14T08:31:25;14.23;;;8.50;;
16612;SDS011;8419;52.358;9.752;2023-02-14T08:34:12;13.00;;;7.67;;
16612;SDS011;8419;52.358;9.752;2023-02-14T08:36:58;11.17;;;7.17;;
16612;SDS011;8419;52.358;9.752;2023-02-14T08:39:44;11.97;;;6.73;;
16612;SDS011;8419;52.358;9.752;2023-02-14T08:42:30;13.60;;;7.17;;
16612;SDS011;8419;52.358;9.752;2023-02-14T08:45:17;13.47;;;8.37;;
16612;SDS011;8419;52.358;9.752;2023-02-14T08:48:04;13.97;;;8.33;;
16612;SDS011;8419;52.358;9.752;2023-02-14T08:50:51;14.47;;;8.50;;
16612;SDS011;8419;52.358;9.752;2023-02-14T08:53:37;10.10;;;7.50;;
16612;SDS011;8419;52.358;9.752;2023-02-14T08:56:23;12.83;;;8.23;;
16612;SDS011;8419;52.358;9.752;2023-02-14T08:59:08;12.13;;;7.10;;
16612;SDS011;8419;52.358;9.752;2023-02-14T09:01:54;10.20;;;6.60;;
16612;SDS011;8419;52.358;9.752;2023-02-14T09:04:40;12.40;;;7.90;;
16612;SDS011;8419;52.358;9.752;2023-02-14T09:07:25;12.03;;;8.10;;
16612;SDS011;8419;52.358;9.752;2023-02-14T09:10:11;11.53;;;7.23;;
16612;SDS011;8419;52.358;9.752;2023-02-14T09:13:00;13.80;;;8.13;;
16612;SDS011;8419;52.358;9.752;2023-02-14T09:15:45;12.07;;;7.57;;
16612;SDS011;8419;52.358;9.752;2023-02-14T09:18:31;10.40;;;6.97;;
16612;SDS011;8419;52.358;9.752;2023-02-14T09:21:20;13.70;;;8.13;;
16612;SDS011;8419;52.358;9.752;2023-02-14T09:24:08;16.20;;;9.38;;
16612;SDS011;8419;52.358;9.752;2023-02-14T09:26:54;17.20;;;8.93;;
16612;SDS011;8419;52.358;9.752;2023-02-14T09:29:41;12.03;;;7.63;;
16612;SDS011;8419;52.358;9.752;2023-02-14T09:32:26;12.52;;;7.40;;
16612;SDS011;8419;52.358;9.752;2023-02-14T09:35:12;13.83;;;8.63;;
16612;SDS011;8419;52.358;9.752;2023-02-14T09:38:16;13.52;;;8.68;;
16612;SDS011;8419;52.358;9.752;2023-02-14T09:41:04;13.77;;;8.02;;
16612;SDS011;8419;52.358;9.752;2023-02-14T09:43:53;12.45;;;8.23;;
16612;SDS011;8419;52.358;9.752;2023-02-14T09:46:44;12.53;;;7.67;;
16612;SDS011;8419;52.358;9.752;2023-02-14T09:49:34;13.98;;;8.13;;
16612;SDS011;8419;52.358;9.752;2023-02-14T09:52:25;10.35;;;7.55;;
16612;SDS011;8419;52.358;9.752;2023-02-14T09:55:14;11.93;;;7.43;;
16612;SDS011;8419;52.358;9.752;2023-02-14T09:58:05;13.60;;;7.72;;
16612;SDS011;8419;52.358;9.752;2023-02-14T10:00:58;13.43;;;8.20;;
16612;SDS011;8419;52.358;9.752;2023-02-14T10:04:04;13.98;;;7.97;;
16612;SDS011;8419;52.358;9.752;2023-02-14T10:07:04;14.63;;;8.32;;
16612;SDS011;8419;52.358;9.752;2023-02-14T10:09:59;13.20;;;7.53;;
16612;SDS011;8419;52.358;9.752;2023-02-14T10:12:53;15.25;;;8.35;;
16612;SDS011;8419;52.358;9.752;2023-02-14T10:15:44;11.20;;;6.95;;
16612;SDS011;8419;52.358;9.752;2023-02-14T10:18:34;12.63;;;7.12;;
16612;SDS011;8419;52.358;9.752;2023-02-14T10:21:25;15.18;;;7.68;;
16612;SDS011;8419;52.358;9.752;2023-02-14T10:24:15;14.38;;;8.35;;
16612;SDS011;8419;52.358;9.752;2023-02-14T10:27:08;11.82;;;7.87;;
16612;SDS011;8419;52.358;9.752;2023-02-14T10:30:05;12.82;;;7.28;;
16612;SDS011;8419;52.358;9.752;2023-02-14T10:32:59;16.02;;;8.25;;
16612;SDS011;8419;52.358;9.752;2023-02-14T10:35:53;11.27;;;7.32;;
16612;SDS011;8419;52.358;9.752;2023-02-14T10:38:49;12.05;;;7.95;;
16612;SDS011;8419;52.358;9.752;2023-02-14T10:41:46;12.65;;;8.10;;
16612;SDS011;8419;52.358;9.752;2023-02-14T10:44:40;12.85;;;7.40;;
16612;SDS011;8419;52.358;9.752;2023-02-14T10:47:36;14.30;;;8.38;;
16612;SDS011;8419;52.358;9.752;2023-02-14T10:50:31;17.37;;;8.38;;
16612;SDS011;8419;52.358;9.752;2023-02-14T10:53:23;14.00;;;7.45;;
16612;SDS011;8419;52.358;9.752;2023-02-14T10:56:19;12.25;;;7.32;;
16612;SDS011;8419;52.358;9.752;2023-02-14T10:59:13;12.02;;;6.90;;
16612;SDS011;8419;52.358;9.752;2023-02-14T11:02:07;18.12;;;8.82;;
16612;SDS011;8419;52.358;9.752;2023-02-14T11:04:59;21.02;;;8.25;;
16612;SDS011;8419;52.358;9.752;2023-02-14T11:07:47;14.50;;;7.53;;
16612;SDS011;8419;52.358;9.752;2023-02-14T11:10:34;13.65;;;7.93;;
16612;SDS011;8419;52.358;9.752;2023-02-14T11:13:26;16.60;;;6.45;;
16612;SDS011;8419;52.358;9.752;2023-02-14T11:16:18;17.25;;;7.22;;
16612;SDS011;8419;52.358;9.752;2023-02-14T11:19:18;12.60;;;7.37;;
16612;SDS011;8419;52.358;9.752;2023-02-14T11:22:07;11.90;;;6.75;;
16612;SDS011;8419;52.358;9.752;2023-02-14T11:24:54;10.23;;;7.03;;
16612;SDS011;8419;52.358;9.752;2023-02-14T11:27:50;11.02;;;7.18;;
16612;SDS011;8419;52.358;9.752;2023-02-14T11:30:42;8.90;;;6.65;;
16612;SDS011;8419;52.358;9.752;2023-02-14T11:33:33;7.68;;;6.00;;
16612;SDS011;8419;52.358;9.752;2023-02-14T11:36:23;12.18;;;7.40;;
16612;SDS011;8419;52.358;9.752;2023-02-14T11:39:16;14.82;;;7.70;;
16612;SDS011;8419;52.358;9.752;2023-02-14T11:42:12;13.38;;;7.53;;
16612;SDS011;8419;52.358;9.752;2023-02-14T11:44:57;10.15;;;6.10;;
16612;SDS011;8419;52.358;9.752;2023-02-14T11:47:44;8.63;;;5.85;;
16612;SDS011;8419;52.358;9.752;2023-02-14T11:50:29;8.88;;;6.70;;
16612;SDS011;8419;52.358;9.752;2023-02-14T11:53:18;12.07;;;7.50;;
16612;SDS011;8419;52.358;9.752;2023-02-14T11:56:07;10.77;;;6.65;;
16612;SDS011;8419;52.358;9.752;2023-02-14T11:58:54;15.18;;;6.05;;
16612;SDS011;8419;52.358;9.752;2023-02-14T12:01:41;14.23;;;6.40;;
16612;SDS011;8419;52.358;9.752;2023-02-14T12:04:31;11.75;;;5.75;;
16612;SDS011;8419;52.358;9.752;2023-02-14T12:07:20;9.82;;;5.62;;
16612;SDS011;8419;52.358;9.752;2023-02-14T12:10:20;13.80;;;10.20;;
16612;SDS011;8419;52.358;9.752;2023-02-14T12:13:21;13.40;;;5.55;;
16612;SDS011;8419;52.358;9.752;2023-02-14T12:16:09;10.40;;;6.03;;
16612;SDS011;8419;52.358;9.752;2023-02-14T12:19:09;8.10;;;5.22;;
16612;SDS011;8419;52.358;9.752;2023-02-14T12:22:01;11.02;;;6.35;;
16612;SDS011;8419;52.358;9.752;2023-02-14T12:24:50;10.88;;;6.18;;
16612;SDS011;8419;52.358;9.752;2023-02-14T12:27:44;6.18;;;4.53;;
16612;SDS011;8419;52.358;9.752;2023-02-14T12:30:33;9.93;;;5.95;;
16612;SDS011;8419;52.358;9.752;2023-02-14T12:33:20;8.85;;;5.37;;
16612;SDS011;8419;52.358;9.752;2023-02-14T12:36:09;10.07;;;5.25;;
16612;SDS011;8419;52.358;9.752;2023-02-14T12:39:04;8.25;;;5.60;;
16612;SDS011;8419;52.358;9.752;2023-02-14T12:41:58;10.25;;;5.60;;
16612;SDS011;8419;52.358;9.752;2023-02-14T12:44:52;8.93;;;4.68;;
16612;SDS011;8419;52.358;9.752;2023-02-14T12:47:47;5.37;;;4.05;;
16612;SDS011;8419;52.358;9.752;2023-02-14T12:50:45;5.97;;;4.45;;
16612;SDS011;8419;52.358;9.752;2023-02-14T12:53:44;6.55;;;4.60;;
16612;SDS011;8419;52.358;9.752;2023-02-14T12:56:43;8.55;;;4.60;;
16612;SDS011;8419;52.358;9.752;2023-02-14T12:59:36;6.60;;;4.75;;
16612;SDS011;8419;52.358;9.752;2023-02-14T13:02:47;5.15;;;3.40;;
16612;SDS011;8419;52.358;9.752;2023-02-14T13:05:51;5.65;;;3.72;;
16612;SDS011;8419;52.358;9.752;2023-02-14T13:08:56;5.43;;;3.95;;
16612;SDS011;8419;52.358;9.752;2023-02-14T13:12:00;6.82;;;3.83;;
16612;SDS011;8419;52.358;9.752;2023-02-14T13:14:58;4.78;;;3.42;;
16612;SDS011;8419;52.358;9.752;2023-02-14T13:17:57;8.82;;;3.47;;
16612;SDS011;8419;52.358;9.752;2023-02-14T13:21:00;6.20;;;3.08;;
16612;SDS011;8419;52.358;9.752;2023-02-14T13:23:53;5.60;;;3.00;;
16612;SDS011;8419;52.358;9.752;2023-02-14T13:26:48;5.25;;;3.30;;
16612;SDS011;8419;52.358;9.752;2023-02-14T13:29:42;4.75;;;3.65;;
16612;SDS011;8419;52.358;9.752;2023-02-14T13:32:32;7.68;;;3.80;;
16612;SDS011;8419;52.358;9.752;2023-02-14T13:35:22;3.92;;;3.40;;
16612;SDS011;8419;52.358;9.752;2023-02-14T13:38:12;6.82;;;4.47;;
16612;SDS011;8419;52.358;9.752;2023-02-14T13:41:03;4.32;;;3.35;;
16612;SDS011;8419;52.358;9.752;2023-02-14T13:43:51;10.93;;;3.55;;
16612;SDS011;8419;52.358;9.752;2023-02-14T13:46:50;9.50;;;4.57;;
16612;SDS011;8419;52.358;9.752;2023-02-14T13:49:36;7.18;;;4.43;;
16612;SDS011;8419;52.358;9.752;2023-02-14T13:52:41;7.45;;;4.65;;
16612;SDS011;8419;52.358;9.752;2023-02-14T13:55:46;9.30;;;5.15;;
16612;SDS011;8419;52.358;9.752;2023-02-14T13:58:45;11.48;;;5.62;;
16612;SDS011;8419;52.358;9.752;2023-02-14T14:01:38;6.90;;;4.18;;
16612;SDS011;8419;52.358;9.752;2023-02-14T14:04:33;9.38;;;5.18;;
16612;SDS011;8419;52.358;9.752;2023-02-14T14:07:23;8.90;;;5.22;;
16612;SDS011;8419;52.358;9.752;2023-02-14T14:10:13;7.53;;;4.97;;
16612;SDS011;8419;52.358;9.752;2023-02-14T14:17:29;14.35;;;5.65;;
16612;SDS011;8419;52.358;9.752;2023-02-14T14:20:37;13.95;;;6.30;;
16612;SDS011;8419;52.358;9.752;2023-02-14T14:23:31;9.10;;;4.90;;
16612;SDS011;8419;52.358;9.752;2023-02-14T14:26:32;8.63;;;4.95;;
16612;SDS011;8419;52.358;9.752;2023-02-14T14:29:21;10.27;;;5.78;;
16612;SDS011;8419;52.358;9.752;2023-02-14T14:32:15;14.05;;;5.55;;
16612;SDS011;8419;52.358;9.752;2023-02-14T14:35:14;8.48;;;4.37;;
16612;SDS011;8419;52.358;9.752;2023-02-14T14:38:03;10.13;;;4.82;;
16612;SDS011;8419;52.358;9.752;2023-02-14T14:40:48;9.23;;;6.05;;
16612;SDS011;8419;52.358;9.752;2023-02-14T14:43:35;12.88;;;6.37;;
16612;SDS011;8419;52.358;9.752;2023-02-14T14:46:25;7.93;;;4.85;;
16612;SDS011;8419;52.358;9.752;2023-02-14T14:49:11;7.70;;;4.35;;
16612;SDS011;8419;52.358;9.752;2023-02-14T14:52:00;6.45;;;4.25;;
16612;SDS011;8419;52.358;9.752;2023-02-14T14:54:47;7.22;;;4.32;;
16612;SDS011;8419;52.358;9.752;2023-02-14T14:57:34;7.62;;;5.97;;
16612;SDS011;8419;52.358;9.752;2023-02-14T15:00:44;11.23;;;5.32;;
16612;SDS011;8419;52.358;9.752;2023-02-14T15:03:37;6.12;;;4.62;;
16612;SDS011;8419;52.358;9.752;2023-02-14T15:06:23;6.18;;;4.87;;
16612;SDS011;8419;52.358;9.752;2023-02-14T15:09:13;9.02;;;5.78;;
16612;SDS011;8419;52.358;9.752;2023-02-14T15:12:03;8.30;;;5.40;;
16612;SDS011;8419;52.358;9.752;2023-02-14T15:15:09;9.35;;;6.53;;
16612;SDS011;8419;52.358;9.752;2023-02-14T15:17:57;11.18;;;6.00;;
16612;SDS011;8419;52.358;9.752;2023-02-14T15:20:42;9.13;;;5.75;;
16612;SDS011;8419;52.358;9.752;2023-02-14T15:23:33;6.97;;;5.78;;
16612;SDS011;8419;52.358;9.752;2023-02-14T15:26:20;8.55;;;5.62;;
16612;SDS011;8419;52.358;9.752;2023-02-14T15:29:18;8.52;;;5.37;;
16612;SDS011;8419;52.358;9.752;2023-02-14T15:32:07;9.75;;;5.40;;
16612;SDS011;8419;52.358;9.752;2023-02-14T15:34:55;9.40;;;5.90;;
16612;SDS011;8419;52.358;9.752;2023-02-14T15:37:42;9.93;;;5.87;;
16612;SDS011;8419;52.358;9.752;2023-02-14T15:40:30;7.93;;;5.75;;
16612;SDS011;8419;52.358;9.752;2023-02-14T15:43:21;7.53;;;5.45;;
16612;SDS011;8419;52.358;9.752;2023-02-14T15:46:16;8.48;;;5.50;;
16612;SDS011;8419;52.358;9.752;2023-02-14T15:49:14;8.05;;;5.55;;
16612;SDS011;8419;52.358;9.752;2023-02-14T15:52:04;7.15;;;4.80;;
16612;SDS011;8419;52.358;9.752;2023-02-14T15:54:55;8.30;;;5.50;;
16612;SDS011;8419;52.358;9.752;2023-02-14T15:57:41;6.53;;;4.82;;
16612;SDS011;8419;52.358;9.752;2023-02-14T16:00:29;9.85;;;5.22;;
16612;SDS011;8419;52.358;9.752;2023-02-14T16:03:18;7.85;;;4.97;;
16612;SDS011;8419;52.358;9.752;2023-02-14T16:06:06;7.20;;;5.10;;
16612;SDS011;8419;52.358;9.752;2023-02-14T16:08:59;8.30;;;5.03;;
16612;SDS011;8419;52.358;9.752;2023-02-14T16:11:46;9.45;;;5.32;;
16612;SDS011;8419;52.358;9.752;2023-02-14T16:15:19;9.63;;;5.65;;
16612;SDS011;8419;52.358;9.752;2023-02-14T16:18:16;9.80;;;5.40;;
16612;SDS011;8419;52.358;9.752;2023-02-14T16:21:10;8.65;;;5.60;;
16612;SDS011;8419;52.358;9.752;2023-02-14T16:24:11;8.45;;;5.03;;
16612;SDS011;8419;52.358;9.752;2023-02-14T16:26:59;7.62;;;5.35;;
16612;SDS011;8419;52.358;9.752;2023-02-14T16:29:51;7.78;;;5.47;;
16612;SDS011;8419;52.358;9.752;2023-02-14T16:32:37;7.93;;;5.55;;
16612;SDS011;8419;52.358;9.752;2023-02-14T16:35:23;9.98;;;6.55;;
16612;SDS011;8419;52.358;9.752;2023-02-14T16:38:11;5.85;;;4.45;;
16612;SDS011;8419;52.358;9.752;2023-02-14T16:40:59;9.43;;;5.45;;
16612;SDS011;8419;52.358;9.752;2023-02-14T16:43:47;6.93;;;5.07;;
16612;SDS011;8419;52.358;9.752;2023-02-14T16:46:34;9.30;;;5.45;;
16612;SDS011;8419;52.358;9.752;2023-02-14T16:49:20;8.43;;;6.30;;
16612;SDS011;8419;52.358;9.752;2023-02-14T16:52:08;7.53;;;5.57;;
16612;SDS011;8419;52.358;9.752;2023-02-14T16:54:57;8.93;;;5.47;;
16612;SDS011;8419;52.358;9.752;2023-02-14T16:57:43;12.20;;;6.07;;
16612;SDS011;8419;52.358;9.752;2023-02-14T17:00:31;8.23;;;5.50;;
16612;SDS011;8419;52.358;9.752;2023-02-14T17:03:17;9.38;;;6.40;;
16612;SDS011;8419;52.358;9.752;2023-02-14T17:06:03;9.70;;;5.90;;
16612;SDS011;8419;52.358;9.752;2023-02-14T17:08:53;13.05;;;7.03;;
16612;SDS011;8419;52.358;9.752;2023-02-14T17:11:42;9.45;;;6.18;;
16612;SDS011;8419;52.358;9.752;2023-02-14T17:14:35;12.43;;;7.37;;
16612;SDS011;8419;52.358;9.752;2023-02-14T17:17:22;10.43;;;7.22;;
16612;SDS011;8419;52.358;9.752;2023-02-14T17:20:09;9.02;;;6.28;;
16612;SDS011;8419;52.358;9.752;2023-02-14T17:22:56;11.50;;;6.75;;
16612;SDS011;8419;52.358;9.752;2023-02-14T17:25:42;11.85;;;7.00;;